Time;durP1;ratioP1;P1;durP2;ratioP2;P2;SDS_P1;SDS_P2;PMS_P1;PMS_P2;Temp;Humidity;BMP_temperature;BMP_pressure;BME280_temperature;BME280_humidity;BME280_pressure;Samples;Min_cycle;Max_cycle;Signal;HPM_P1;HPM_P2
2023/10/26 00:00:35;;;;;;;1.80;0.50;;;10.90;99.90;;;;;;5005840;28;20033;-32
2023/10/26 00:03:01;;;;;;;0.50;0.50;;;10.80;99.90;;;;;;5011689;28;20179;-34
2023/10/26 00:05:27;;;;;;;0.50;0.50;;;10.80;99.90;;;;;;5012278;28;20033;-34
2023/10/26 00:07:53;;;;;;;0.63;0.50;;;10.70;99.90;;;;;;5008573;28;20476;-32
2023/10/26 00:10:18;;;;;;;0.85;0.50;;;10.70;99.90;;;;;;5004288;28;20041;-34
2023/10/26 00:12:45;;;;;;;0.50;0.50;;;10.70;99.90;;;;;;5006420;28;20038;-33
2023/10/26 00:15:10;;;;;;;0.50;0.50;;;10.60;99.90;;;;;;5009183;28;20026;-33
2023/10/26 00:17:37;;;;;;;1.95;0.60;;;10.60;99.90;;;;;;5008284;28;20113;-32
2023/10/26 00:20:04;;;;;;;0.60;0.60;;;10.60;99.90;;;;;;5006126;28;20426;-32
2023/10/26 00:22:30;;;;;;;1.08;0.40;;;10.60;99.90;;;;;;5005653;28;20506;-32
2023/10/26 00:24:56;;;;;;;0.88;0.80;;;10.50;99.90;;;;;;5007482;28;20044;-33
2023/10/26 00:27:21;;;;;;;2.75;0.65;;;10.50;99.90;;;;;;5008786;28;20137;-33
2023/10/26 00:29:47;;;;;;;0.65;0.65;;;10.50;99.90;;;;;;5006112;28;20081;-33
2023/10/26 00:32:13;;;;;;;0.30;0.30;;;10.60;99.90;;;;;;5004512;28;20050;-32
2023/10/26 00:34:39;;;;;;;0.50;0.50;;;10.50;99.90;;;;;;5004044;28;20026;-34
2023/10/26 00:37:05;;;;;;;0.50;0.50;;;10.50;99.90;;;;;;5005514;28;20360;-32
2023/10/26 00:39:30;;;;;;;0.60;0.60;;;10.50;99.90;;;;;;5006394;28;20042;-32
2023/10/26 00:41:56;;;;;;;0.45;0.45;;;10.50;99.90;;;;;;5006525;28;20113;-32
2023/10/26 00:44:22;;;;;;;0.60;0.60;;;10.50;99.90;;;;;;5006214;28;20026;-33
2023/10/26 00:46:52;;;;;;;0.60;0.60;;;10.40;99.90;;;;;;5004422;28;20028;-36
2023/10/26 00:49:18;;;;;;;0.52;0.52;;;10.40;99.90;;;;;;5012829;28;20049;-31
2023/10/26 00:51:51;;;;;;;0.45;0.45;;;10.40;99.90;;;;;;5007226;28;20034;-42
2023/10/26 00:54:20;;;;;;;0.40;0.40;;;10.40;99.90;;;;;;5005523;28;20065;-40
2023/10/26 00:56:47;;;;;;;0.50;0.50;;;10.30;99.90;;;;;;5007095;28;20026;-40
2023/10/26 00:59:14;;;;;;;1.08;0.50;;;10.30;99.90;;;;;;5007062;28;20229;-42
2023/10/26 01:01:42;;;;;;;0.60;0.60;;;10.30;99.90;;;;;;5004549;28;20034;-39
2023/10/26 01:04:07;;;;;;;0.45;0.43;;;10.30;99.90;;;;;;5004601;28;20482;-39
2023/10/26 01:06:33;;;;;;;0.40;0.40;;;10.20;99.90;;;;;;5012062;28;20030;-38
2023/10/26 01:08:59;;;;;;;0.65;0.65;;;10.10;99.90;;;;;;5008895;28;20041;-39
2023/10/26 01:11:24;;;;;;;1.05;0.50;;;10.10;99.90;;;;;;5005777;28;20408;-38
2023/10/26 01:13:50;;;;;;;0.47;0.47;;;10.10;99.90;;;;;;5006894;28;20038;-39
2023/10/26 01:16:16;;;;;;;0.77;0.50;;;10.10;99.90;;;;;;5010761;28;20068;-39
2023/10/26 01:18:42;;;;;;;0.35;0.35;;;10.10;99.90;;;;;;5012331;28;20017;-38
2023/10/26 01:21:09;;;;;;;0.75;0.60;;;10.10;99.90;;;;;;5006610;28;20100;-39
2023/10/26 01:23:35;;;;;;;0.68;0.35;;;10.00;99.90;;;;;;5008867;28;20030;-38
2023/10/26 01:26:00;;;;;;;0.40;0.40;;;10.00;99.90;;;;;;5008546;28;22378;-38
2023/10/26 01:28:26;;;;;;;0.75;0.43;;;10.00;99.90;;;;;;5008812;28;20041;-39
2023/10/26 01:30:52;;;;;;;0.47;0.47;;;9.90;99.90;;;;;;5006883;28;20068;-36
2023/10/26 01:33:19;;;;;;;0.47;0.47;;;9.90;99.90;;;;;;5004780;28;20490;-39
2023/10/26 01:35:45;;;;;;;0.50;0.50;;;9.90;99.90;;;;;;5001314;28;20463;-38
2023/10/26 01:38:12;;;;;;;0.55;0.50;;;9.90;99.90;;;;;;5001260;28;20033;-39
2023/10/26 01:40:37;;;;;;;0.63;0.63;;;9.80;99.90;;;;;;5005606;28;20014;-39
2023/10/26 01:43:03;;;;;;;3.30;0.50;;;9.80;99.90;;;;;;5002402;28;20033;-40
2023/10/26 01:45:29;;;;;;;0.60;0.60;;;9.80;99.90;;;;;;5009417;28;20368;-39
2023/10/26 01:47:55;;;;;;;0.50;0.50;;;9.80;99.90;;;;;;5004789;28;20080;-38
2023/10/26 01:50:21;;;;;;;0.50;0.50;;;9.80;99.90;;;;;;5004691;28;20026;-40
2023/10/26 01:52:46;;;;;;;0.40;0.40;;;9.80;99.90;;;;;;5005329;28;20069;-39
2023/10/26 01:55:12;;;;;;;0.50;0.50;;;9.80;99.90;;;;;;5006086;28;20033;-37
2023/10/26 01:57:38;;;;;;;1.73;0.50;;;9.80;99.90;;;;;;5008891;28;20050;-40
2023/10/26 02:00:04;;;;;;;0.50;0.50;;;9.90;99.90;;;;;;5003187;28;20026;-38
2023/10/26 02:02:30;;;;;;;0.55;0.55;;;9.90;99.90;;;;;;5008253;28;20479;-39
2023/10/26 02:04:55;;;;;;;0.88;0.55;;;9.90;99.90;;;;;;5009947;28;20026;-40
2023/10/26 02:07:21;;;;;;;0.50;0.50;;;9.90;99.90;;;;;;5005151;28;20030;-37
2023/10/26 02:09:46;;;;;;;0.32;0.32;;;9.90;99.90;;;;;;5006869;28;20029;-38
2023/10/26 02:12:12;;;;;;;0.75;0.60;;;9.90;99.90;;;;;;5004421;28;20376;-32
2023/10/26 02:14:38;;;;;;;0.77;0.60;;;9.90;99.90;;;;;;5004644;28;20021;-32
2023/10/26 02:17:04;;;;;;;0.40;0.40;;;9.80;99.90;;;;;;5010622;28;20033;-32
2023/10/26 02:19:30;;;;;;;1.20;0.50;;;9.90;99.90;;;;;;4983881;28;20026;-32
2023/10/26 02:21:55;;;;;;;0.40;0.40;;;9.90;99.90;;;;;;5000095;28;20053;-31
2023/10/26 02:24:21;;;;;;;0.40;0.40;;;9.70;99.90;;;;;;5003882;28;20029;-32
2023/10/26 02:26:46;;;;;;;0.68;0.60;;;9.70;99.90;;;;;;4999938;28;20030;-33
2023/10/26 02:29:12;;;;;;;0.30;0.30;;;9.70;99.90;;;;;;5009082;28;20065;-34
2023/10/26 02:31:38;;;;;;;0.95;0.43;;;9.70;99.90;;;;;;5003022;28;20116;-36
2023/10/26 02:34:03;;;;;;;0.40;0.40;;;9.70;99.90;;;;;;5005791;28;20088;-33
2023/10/26 02:36:29;;;;;;;0.40;0.40;;;9.70;99.90;;;;;;5003754;28;20057;-32
2023/10/26 02:38:55;;;;;;;0.30;0.30;;;9.60;99.90;;;;;;4996711;28;20463;-32
2023/10/26 02:41:20;;;;;;;0.80;0.63;;;9.60;99.90;;;;;;5004053;28;20065;-33
2023/10/26 02:43:46;;;;;;;0.40;0.40;;;9.60;99.90;;;;;;5005674;28;20021;-32
2023/10/26 02:46:11;;;;;;;0.40;0.40;;;9.60;99.90;;;;;;5004216;28;20108;-32
2023/10/26 02:48:37;;;;;;;0.40;0.40;;;9.50;99.90;;;;;;5008573;28;20437;-37
2023/10/26 02:51:03;;;;;;;0.77;0.50;;;9.60;99.90;;;;;;5000092;28;20124;-32
2023/10/26 02:53:29;;;;;;;0.60;0.60;;;9.60;99.90;;;;;;5002875;28;20021;-32
2023/10/26 02:55:54;;;;;;;1.30;0.50;;;9.60;99.90;;;;;;5001387;28;20044;-32
2023/10/26 02:58:20;;;;;;;0.75;0.75;;;9.50;99.90;;;;;;5002957;28;20394;-34
2023/10/26 03:00:46;;;;;;;2.28;0.55;;;9.50;99.90;;;;;;5005570;28;20021;-34
2023/10/26 03:03:11;;;;;;;2.20;0.50;;;9.50;99.90;;;;;;5007087;28;20100;-32
2023/10/26 03:05:38;;;;;;;0.57;0.57;;;9.50;99.90;;;;;;5006745;28;20049;-34
2023/10/26 03:08:08;;;;;;;1.13;0.52;;;9.40;99.90;;;;;;5009920;28;20065;-34
2023/10/26 03:10:33;;;;;;;0.82;0.65;;;9.40;99.90;;;;;;5005766;28;20055;-37
2023/10/26 03:12:59;;;;;;;0.60;0.60;;;9.40;99.90;;;;;;5002777;28;20028;-40
2023/10/26 03:15:25;;;;;;;0.50;0.50;;;9.30;99.90;;;;;;5004277;28;20026;-39
2023/10/26 03:17:50;;;;;;;0.40;0.40;;;9.30;99.90;;;;;;5006400;28;20068;-35
2023/10/26 03:20:16;;;;;;;1.30;0.60;;;9.20;99.90;;;;;;5001448;28;20034;-32
2023/10/26 03:22:41;;;;;;;0.50;0.50;;;9.20;99.90;;;;;;5005602;28;20033;-40
2023/10/26 03:25:08;;;;;;;0.77;0.77;;;9.10;99.90;;;;;;5005224;28;20045;-39
2023/10/26 03:27:34;;;;;;;0.63;0.63;;;9.10;99.90;;;;;;5005094;28;20092;-39
2023/10/26 03:30:00;;;;;;;1.10;0.60;;;9.10;99.90;;;;;;5003681;28;20041;-39
2023/10/26 03:32:25;;;;;;;3.88;0.60;;;9.00;99.90;;;;;;5001464;28;20092;-39
2023/10/26 03:34:52;;;;;;;2.03;0.70;;;9.00;99.90;;;;;;5008592;28;20038;-38
2023/10/26 03:37:17;;;;;;;0.50;0.50;;;8.90;99.90;;;;;;5005204;28;20030;-39
2023/10/26 03:39:43;;;;;;;2.00;0.60;;;9.00;99.90;;;;;;5006055;28;20751;-39
2023/10/26 03:42:09;;;;;;;1.25;0.70;;;9.00;99.90;;;;;;5008846;28;20033;-37
2023/10/26 03:44:34;;;;;;;1.40;0.60;;;9.00;99.90;;;;;;5013271;28;20052;-39
2023/10/26 03:47:00;;;;;;;1.27;0.70;;;8.90;99.90;;;;;;5009893;28;20068;-39
2023/10/26 03:49:26;;;;;;;0.85;0.70;;;9.00;99.90;;;;;;5010799;28;20144;-39
2023/10/26 03:51:51;;;;;;;1.80;0.60;;;9.00;99.90;;;;;;4998849;28;20416;-36
2023/10/26 03:54:17;;;;;;;0.50;0.50;;;9.00;99.90;;;;;;5002217;28;20022;-39
2023/10/26 03:56:43;;;;;;;2.47;1.40;;;9.00;99.90;;;;;;5002459;28;20026;-37
2023/10/26 03:59:08;;;;;;;0.75;0.63;;;8.90;99.90;;;;;;5001876;28;20380;-39
2023/10/26 04:01:37;;;;;;;0.52;0.47;;;8.90;99.90;;;;;;5003348;28;20041;-40
2023/10/26 04:04:02;;;;;;;0.60;0.60;;;8.80;99.90;;;;;;5008663;28;20108;-39
2023/10/26 04:06:30;;;;;;;0.80;0.80;;;8.80;99.90;;;;;;5004086;28;20124;-39
2023/10/26 04:08:56;;;;;;;1.00;0.90;;;8.70;99.90;;;;;;5007110;28;20042;-39
2023/10/26 04:11:22;;;;;;;2.22;0.90;;;8.60;99.90;;;;;;5003047;28;20034;-38
2023/10/26 04:13:48;;;;;;;2.03;1.00;;;8.60;99.90;;;;;;5006596;28;20040;-39
2023/10/26 04:16:14;;;;;;;9.55;4.07;;;8.60;99.90;;;;;;5008728;28;20030;-36
2023/10/26 04:18:39;;;;;;;15.77;8.02;;;8.60;99.90;;;;;;5006491;28;20033;-39
2023/10/26 04:21:05;;;;;;;31.88;15.10;;;8.70;99.90;;;;;;5001773;28;20038;-36
2023/10/26 04:23:31;;;;;;;29.13;13.95;;;8.70;99.90;;;;;;5007461;28;20950;-32
2023/10/26 04:25:56;;;;;;;13.25;8.38;;;8.60;99.90;;;;;;5008527;28;20503;-33
2023/10/26 04:28:22;;;;;;;15.60;9.00;;;8.70;99.90;;;;;;5007499;28;20088;-32
2023/10/26 04:30:48;;;;;;;7.38;5.38;;;8.60;99.90;;;;;;5004861;28;20258;-35
2023/10/26 04:33:17;;;;;;;5.72;4.45;;;8.60;99.90;;;;;;5008017;28;20097;-36
2023/10/26 04:35:44;;;;;;;2.50;2.30;;;8.60;99.90;;;;;;5005069;28;20033;-40
2023/10/26 04:38:10;;;;;;;2.95;2.65;;;8.60;99.90;;;;;;5005963;28;20038;-40
2023/10/26 04:40:40;;;;;;;2.35;2.17;;;8.60;99.90;;;;;;5005089;28;20083;-40
2023/10/26 04:43:07;;;;;;;1.77;1.67;;;8.50;99.90;;;;;;5009427;28;20034;-39
2023/10/26 04:45:33;;;;;;;2.40;2.10;;;8.50;99.90;;;;;;4999455;28;20033;-39
2023/10/26 04:47:59;;;;;;;4.13;1.80;;;8.50;99.90;;;;;;5005497;28;20061;-40
2023/10/26 04:50:25;;;;;;;4.60;1.40;;;8.40;99.90;;;;;;5004015;28;20479;-40
2023/10/26 04:52:51;;;;;;;2.05;1.35;;;8.40;99.90;;;;;;5007119;28;20033;-33
2023/10/26 04:55:16;;;;;;;1.13;1.13;;;8.40;99.90;;;;;;5009010;28;20030;-34
2023/10/26 04:57:42;;;;;;;1.20;1.10;;;8.50;99.90;;;;;;5012055;28;20069;-41
2023/10/26 05:00:11;;;;;;;1.08;0.90;;;8.50;99.90;;;;;;5006648;28;20607;-39
2023/10/26 05:02:37;;;;;;;1.45;1.15;;;8.50;99.90;;;;;;5001528;28;20056;-37
2023/10/26 05:05:04;;;;;;;0.85;0.85;;;8.30;99.90;;;;;;5012750;28;20037;-39
2023/10/26 05:07:30;;;;;;;1.15;1.10;;;8.30;99.90;;;;;;5010656;28;20026;-40
2023/10/26 05:09:56;;;;;;;2.85;1.08;;;8.20;99.90;;;;;;5007906;28;20112;-38
2023/10/26 05:12:22;;;;;;;1.00;0.95;;;8.10;99.90;;;;;;5003789;28;20034;-42
2023/10/26 05:14:48;;;;;;;1.02;0.93;;;8.10;99.90;;;;;;5013745;28;20076;-34
2023/10/26 05:17:13;;;;;;;0.85;0.85;;;8.20;99.90;;;;;;5007726;28;20034;-41
2023/10/26 05:19:39;;;;;;;1.73;1.20;;;8.20;99.90;;;;;;5006924;28;20022;-42
2023/10/26 05:22:04;;;;;;;1.08;0.98;;;8.10;99.90;;;;;;5009795;28;20025;-37
2023/10/26 05:24:31;;;;;;;1.20;1.10;;;8.00;99.90;;;;;;5006618;28;20372;-38
2023/10/26 05:26:57;;;;;;;1.42;1.10;;;7.90;99.90;;;;;;5011444;28;20037;-38
2023/10/26 05:29:22;;;;;;;2.33;1.10;;;7.90;99.90;;;;;;5012156;28;20117;-39
2023/10/26 05:31:48;;;;;;;1.45;1.10;;;7.90;99.90;;;;;;5001787;28;20061;-36
2023/10/26 05:34:14;;;;;;;1.63;1.48;;;8.00;99.90;;;;;;5004797;28;20034;-36
2023/10/26 05:36:40;;;;;;;0.85;0.85;;;8.00;99.90;;;;;;5003190;28;20113;-39
2023/10/26 05:39:06;;;;;;;1.23;1.10;;;8.00;99.90;;;;;;5010445;28;20144;-33
2023/10/26 05:41:32;;;;;;;1.60;1.20;;;8.00;99.90;;;;;;5012511;28;20026;-39
2023/10/26 05:43:58;;;;;;;1.58;1.33;;;8.00;99.90;;;;;;5004998;28;20057;-40
2023/10/26 05:46:24;;;;;;;1.85;1.30;;;8.00;99.90;;;;;;4999106;28;20076;-38
2023/10/26 05:48:50;;;;;;;2.60;1.30;;;8.10;99.90;;;;;;5003968;28;20053;-35
2023/10/26 05:51:15;;;;;;;2.88;1.20;;;8.10;99.90;;;;;;5006004;28;20034;-40
2023/10/26 05:53:41;;;;;;;1.17;1.10;;;8.00;99.90;;;;;;5002793;28;20391;-39
2023/10/26 05:56:07;;;;;;;0.88;0.88;;;8.00;99.90;;;;;;5000113;28;20087;-37
2023/10/26 05:58:33;;;;;;;1.02;0.90;;;8.00;99.90;;;;;;5007355;28;20426;-38
2023/10/26 06:00:59;;;;;;;0.80;0.80;;;8.00;99.90;;;;;;5007470;28;20038;-39
2023/10/26 06:03:25;;;;;;;1.13;0.95;;;7.90;99.90;;;;;;5007550;28;20165;-38
2023/10/26 06:05:51;;;;;;;1.10;1.10;;;8.00;99.90;;;;;;5005002;28;20476;-38
2023/10/26 06:08:17;;;;;;;2.67;1.30;;;7.90;99.90;;;;;;4995999;28;20650;-37
2023/10/26 06:10:42;;;;;;;1.73;1.35;;;8.00;99.90;;;;;;5003349;28;20057;-39
2023/10/26 06:13:08;;;;;;;0.98;0.98;;;7.90;99.90;;;;;;5004687;28;20025;-39
2023/10/26 06:15:34;;;;;;;1.30;1.20;;;8.00;99.90;;;;;;4999982;28;20484;-40
2023/10/26 06:18:00;;;;;;;1.35;1.25;;;8.00;99.90;;;;;;5004215;28;20513;-39
2023/10/26 06:20:27;;;;;;;1.38;1.05;;;8.10;99.90;;;;;;5005042;28;20066;-39
2023/10/26 06:22:54;;;;;;;1.17;1.07;;;8.10;99.90;;;;;;5008870;28;20022;-37
2023/10/26 06:25:20;;;;;;;1.42;1.10;;;8.20;99.90;;;;;;5003141;28;20018;-39
2023/10/26 06:27:49;;;;;;;1.25;1.15;;;8.20;99.90;;;;;;5000802;28;20046;-40
2023/10/26 06:30:15;;;;;;;1.42;1.23;;;8.20;99.90;;;;;;5001683;28;20796;-40
2023/10/26 06:32:42;;;;;;;1.20;1.10;;;8.20;99.90;;;;;;4999907;28;20041;-40
2023/10/26 06:35:08;;;;;;;2.10;1.20;;;8.30;99.90;;;;;;4997166;28;20531;-36
2023/10/26 06:37:33;;;;;;;1.73;1.40;;;8.20;99.90;;;;;;4998516;28;20369;-38
2023/10/26 06:39:59;;;;;;;2.03;1.10;;;8.20;99.90;;;;;;5002034;28;20052;-40
2023/10/26 06:42:25;;;;;;;2.10;1.17;;;8.30;99.90;;;;;;5006093;28;20026;-38
2023/10/26 06:44:50;;;;;;;3.40;1.65;;;8.30;99.90;;;;;;5001172;28;20053;-37
2023/10/26 06:47:16;;;;;;;1.42;1.33;;;8.40;99.90;;;;;;4995513;28;20029;-39
2023/10/26 06:49:43;;;;;;;1.98;1.20;;;8.40;99.90;;;;;;4998587;28;20038;-32
2023/10/26 06:52:08;;;;;;;3.97;1.42;;;8.60;99.90;;;;;;5003861;28;20169;-32
2023/10/26 06:54:34;;;;;;;2.15;1.58;;;8.60;99.90;;;;;;5001502;28;20112;-32
2023/10/26 06:57:00;;;;;;;2.30;1.42;;;8.70;99.90;;;;;;5000029;28;20038;-32
2023/10/26 06:59:25;;;;;;;2.05;1.85;;;8.80;99.90;;;;;;4999469;28;20023;-32
2023/10/26 07:01:51;;;;;;;1.50;1.40;;;8.80;99.90;;;;;;5005170;28;20030;-32
2023/10/26 07:04:17;;;;;;;2.42;1.80;;;8.90;99.90;;;;;;4985598;28;20189;-32
2023/10/26 07:06:42;;;;;;;2.55;1.60;;;9.00;99.90;;;;;;5003285;28;20041;-32
2023/10/26 07:09:08;;;;;;;1.65;1.55;;;9.10;99.90;;;;;;4999312;28;20022;-31
2023/10/26 07:11:34;;;;;;;4.07;1.80;;;9.10;99.90;;;;;;5005011;28;20092;-31
2023/10/26 07:14:00;;;;;;;4.20;1.75;;;9.20;99.90;;;;;;5004164;28;20368;-31
2023/10/26 07:16:25;;;;;;;2.00;1.58;;;9.20;99.90;;;;;;5000272;28;20482;-34
2023/10/26 07:18:52;;;;;;;1.98;1.60;;;9.30;99.90;;;;;;5002531;28;20037;-32
2023/10/26 07:21:18;;;;;;;4.15;1.65;;;9.30;99.90;;;;;;4999615;28;20034;-34
2023/10/26 07:23:43;;;;;;;2.30;1.92;;;9.40;99.90;;;;;;5006553;28;20395;-34
2023/10/26 07:26:14;;;;;;;1.63;1.52;;;9.50;99.90;;;;;;4997425;28;20088;-34
2023/10/26 07:28:40;;;;;;;2.10;1.40;;;9.50;99.90;;;;;;5001718;28;20487;-31
2023/10/26 07:31:05;;;;;;;1.50;1.40;;;9.50;99.90;;;;;;5005600;28;20046;-35
2023/10/26 07:33:31;;;;;;;1.73;1.60;;;9.60;99.90;;;;;;5006117;28;20029;-33
2023/10/26 07:35:57;;;;;;;1.30;1.20;;;9.60;99.90;;;;;;4988751;28;20053;-31
2023/10/26 07:38:24;;;;;;;2.15;1.30;;;9.70;99.90;;;;;;5006572;28;20056;-34
2023/10/26 07:40:54;;;;;;;1.90;1.25;;;9.80;99.90;;;;;;5003465;28;20030;-34
2023/10/26 07:43:23;;;;;;;1.63;1.30;;;9.90;99.90;;;;;;5000911;28;20095;-31
2023/10/26 07:45:51;;;;;;;1.80;1.58;;;10.00;99.90;;;;;;5002334;28;20165;-38
2023/10/26 07:48:17;;;;;;;2.90;2.70;;;10.00;99.90;;;;;;5005549;28;20064;-37
2023/10/26 07:50:43;;;;;;;2.65;1.60;;;10.10;99.90;;;;;;4999927;28;20037;-32
2023/10/26 07:53:09;;;;;;;3.25;1.30;;;10.20;99.90;;;;;;5003432;28;20021;-34
2023/10/26 07:55:34;;;;;;;1.67;1.25;;;10.30;99.90;;;;;;5003697;28;20049;-33
2023/10/26 07:58:03;;;;;;;1.42;1.33;;;10.40;99.90;;;;;;5003134;28;20038;-33
2023/10/26 08:00:33;;;;;;;1.42;1.10;;;10.50;99.90;;;;;;5004759;28;20030;-30
2023/10/26 08:03:00;;;;;;;2.03;1.30;;;10.50;99.90;;;;;;4983564;28;20038;-39
2023/10/26 08:05:26;;;;;;;1.30;1.20;;;10.60;99.90;;;;;;4993633;28;20026;-39
2023/10/26 08:07:52;;;;;;;1.38;1.20;;;10.70;99.90;;;;;;5000599;28;20018;-38
2023/10/26 08:10:18;;;;;;;1.48;1.35;;;10.80;99.90;;;;;;4997570;28;20065;-38
2023/10/26 08:12:44;;;;;;;0.80;0.80;;;10.90;99.90;;;;;;4997467;28;20561;-39
2023/10/26 08:15:09;;;;;;;1.02;0.80;;;10.90;99.90;;;;;;5005407;28;20034;-39
2023/10/26 08:17:36;;;;;;;0.77;0.75;;;11.00;99.90;;;;;;5005765;28;20485;-36
2023/10/26 08:20:07;;;;;;;1.45;0.70;;;11.10;99.90;;;;;;5004042;28;20030;-36
2023/10/26 08:22:33;;;;;;;0.63;0.60;;;11.00;99.90;;;;;;4997284;28;20118;-37
2023/10/26 08:24:59;;;;;;;1.10;0.68;;;11.10;99.90;;;;;;5005473;28;20026;-38
2023/10/26 08:27:25;;;;;;;0.60;0.60;;;11.10;99.90;;;;;;5007558;28;20025;-40
2023/10/26 08:29:51;;;;;;;2.13;0.70;;;11.10;99.90;;;;;;5003346;28;20044;-40
2023/10/26 08:32:17;;;;;;;1.08;0.75;;;11.20;99.90;;;;;;4998736;28;20081;-39
2023/10/26 08:34:44;;;;;;;1.20;0.80;;;11.20;99.90;;;;;;5003715;28;20054;-39
2023/10/26 08:37:10;;;;;;;0.98;0.75;;;11.20;99.90;;;;;;5009600;28;20115;-40
2023/10/26 08:39:36;;;;;;;0.73;0.73;;;11.30;99.90;;;;;;5007263;28;20029;-40
2023/10/26 08:42:02;;;;;;;0.63;0.60;;;11.30;99.90;;;;;;5008347;28;20835;-35
2023/10/26 08:44:31;;;;;;;1.90;0.73;;;11.40;99.90;;;;;;5007176;28;20120;-40
2023/10/26 08:47:05;;;;;;;0.70;0.70;;;11.40;99.90;;;;;;5000816;28;20029;-40
2023/10/26 08:49:31;;;;;;;0.80;0.80;;;11.30;99.90;;;;;;5005108;28;20025;-40
2023/10/26 08:52:00;;;;;;;0.68;0.57;;;11.50;99.90;;;;;;5003084;28;20515;-40
2023/10/26 08:54:29;;;;;;;0.93;0.93;;;11.50;99.90;;;;;;4993794;28;20037;-39
2023/10/26 08:56:55;;;;;;;4.78;3.47;;;11.60;99.90;;;;;;5004339;28;20058;-40
2023/10/26 08:59:24;;;;;;;0.93;0.93;;;11.60;99.90;;;;;;5003596;28;20068;-39
2023/10/26 09:01:50;;;;;;;2.78;2.45;;;11.50;99.90;;;;;;5009912;28;20411;-38
2023/10/26 09:04:16;;;;;;;1.50;0.80;;;11.50;99.90;;;;;;5002676;28;20033;-37
2023/10/26 09:06:49;;;;;;;4.00;0.88;;;11.50;99.90;;;;;;5000274;28;20026;-38
2023/10/26 09:09:15;;;;;;;0.98;0.80;;;11.50;99.90;;;;;;5003597;28;20116;-39
2023/10/26 09:11:44;;;;;;;1.40;1.30;;;11.50;99.90;;;;;;5004731;28;20026;-33
2023/10/26 09:14:20;;;;;;;1.33;1.00;;;11.50;99.90;;;;;;5005558;28;20030;-33
2023/10/26 09:16:47;;;;;;;0.93;0.70;;;11.60;99.90;;;;;;5006373;28;20026;-33
2023/10/26 09:19:14;;;;;;;0.70;0.70;;;11.50;99.90;;;;;;5002011;28;20101;-34
2023/10/26 09:21:54;;;;;;;6.00;4.32;;;11.60;99.90;;;;;;5007044;28;20108;-31
2023/10/26 09:24:24;;;;;;;1.80;1.70;;;11.60;99.90;;;;;;5000536;28;20029;-32
2023/10/26 09:26:52;;;;;;;1.15;1.02;;;11.60;99.90;;;;;;5010492;28;20075;-32
2023/10/26 09:29:18;;;;;;;1.08;0.75;;;11.70;99.90;;;;;;5005434;28;20625;-33
2023/10/26 09:31:54;;;;;;;5.72;3.03;;;11.70;99.90;;;;;;4994445;28;20037;-32
2023/10/26 09:34:24;;;;;;;7.00;2.70;;;11.80;99.90;;;;;;5001281;28;20538;-33
2023/10/26 09:37:00;;;;;;;3.88;3.30;;;11.80;99.90;;;;;;5006139;28;20448;-33
2023/10/26 09:39:32;;;;;;;0.98;0.98;;;11.80;99.90;;;;;;5002451;28;20073;-31
2023/10/26 09:42:00;;;;;;;1.05;0.90;;;11.80;99.90;;;;;;5006517;28;20029;-31
2023/10/26 09:44:27;;;;;;;1.07;1.07;;;11.80;99.90;;;;;;5008461;28;20175;-32
2023/10/26 09:46:53;;;;;;;0.70;0.70;;;11.90;99.90;;;;;;5006786;28;20033;-32
2023/10/26 09:49:20;;;;;;;0.93;0.93;;;11.90;99.90;;;;;;4989628;28;20034;-33
2023/10/26 09:51:46;;;;;;;1.55;0.75;;;11.80;99.90;;;;;;5002569;28;20023;-32
2023/10/26 09:54:13;;;;;;;0.70;0.70;;;11.80;99.90;;;;;;5005692;28;20029;-33
2023/10/26 09:56:45;;;;;;;0.70;0.70;;;11.80;99.90;;;;;;4985729;28;20029;-31
2023/10/26 09:59:11;;;;;;;0.47;0.47;;;11.90;99.90;;;;;;5001176;28;20265;-33
2023/10/26 10:01:39;;;;;;;0.95;0.60;;;11.90;99.90;;;;;;5000653;28;20610;-32
2023/10/26 10:04:06;;;;;;;0.65;0.60;;;12.00;99.90;;;;;;4999699;28;20038;-35
2023/10/26 10:06:51;;;;;;;1.55;0.70;;;12.00;99.90;;;;;;5001009;28;20601;-31
2023/10/26 10:09:26;;;;;;;0.63;0.63;;;12.00;99.90;;;;;;5000920;28;20065;-32
2023/10/26 10:12:08;;;;;;;0.50;0.50;;;12.00;99.90;;;;;;5002912;28;20109;-33
2023/10/26 10:14:52;;;;;;;0.57;0.50;;;12.00;99.90;;;;;;5000718;28;20030;-33
2023/10/26 10:17:18;;;;;;;0.57;0.57;;;12.00;99.90;;;;;;5006396;28;20020;-35
2023/10/26 10:19:48;;;;;;;0.30;0.30;;;11.90;99.90;;;;;;5003600;28;20025;-33
2023/10/26 10:22:38;;;;;;;0.30;0.30;;;11.90;99.90;;;;;;4999163;28;20034;-35
2023/10/26 10:25:05;;;;;;;0.60;0.60;;;11.90;99.90;;;;;;4997315;28;20109;-33
2023/10/26 10:27:31;;;;;;;1.33;0.50;;;11.90;99.90;;;;;;5004197;28;20046;-32
2023/10/26 10:29:58;;;;;;;1.75;0.52;;;11.90;99.90;;;;;;5002731;28;20052;-31
2023/10/26 10:32:48;;;;;;;0.60;0.60;;;12.00;99.90;;;;;;5006265;28;20065;-32
2023/10/26 10:35:43;;;;;;;0.68;0.68;;;11.80;99.90;;;;;;5003460;28;20053;-33
2023/10/26 10:38:15;;;;;;;2.13;0.60;;;11.80;99.90;;;;;;4991000;28;20054;-35
2023/10/26 10:41:05;;;;;;;0.35;0.35;;;11.80;99.90;;;;;;5003921;28;20057;-31
2023/10/26 10:43:32;;;;;;;0.40;0.40;;;11.80;99.90;;;;;;5002492;28;20034;-33
2023/10/26 10:46:26;;;;;;;0.55;0.43;;;11.80;99.90;;;;;;4997600;28;20038;-32
2023/10/26 10:49:14;;;;;;;0.47;0.47;;;11.90;99.90;;;;;;4996503;28;20029;-32
2023/10/26 10:51:42;;;;;;;0.40;0.40;;;11.90;99.90;;;;;;5001161;28;20029;-32
2023/10/26 10:54:13;;;;;;;0.73;0.73;;;11.90;99.90;;;;;;5001427;28;20064;-31
2023/10/26 10:56:44;;;;;;;1.20;1.10;;;11.90;99.90;;;;;;5007330;28;20284;-33
2023/10/26 10:59:26;;;;;;;1.30;1.20;;;11.80;99.90;;;;;;4988408;28;20022;-31
2023/10/26 11:02:09;;;;;;;1.48;1.25;;;11.80;99.90;;;;;;4997145;28;20039;-31
2023/10/26 11:04:49;;;;;;;5.20;2.38;;;11.90;99.90;;;;;;5004998;28;20125;-32
2023/10/26 11:07:15;;;;;;;1.63;1.48;;;12.00;99.90;;;;;;5002490;28;20092;-31
2023/10/26 11:09:40;;;;;;;1.98;1.55;;;12.20;99.90;;;;;;5003530;28;20034;-31
2023/10/26 11:12:11;;;;;;;1.27;0.73;;;12.20;99.90;;;;;;5001756;28;20120;-32
2023/10/26 11:14:45;;;;;;;1.42;0.73;;;12.30;99.90;;;;;;5006162;28;20037;-33
2023/10/26 11:17:14;;;;;;;0.80;0.80;;;12.40;99.90;;;;;;4999166;28;20029;-31
2023/10/26 11:19:39;;;;;;;;;;;12.60;99.90;;;;;;4999463;28;20382;-32
2023/10/26 11:22:06;;;;;;;2.17;1.10;;;12.70;99.90;;;;;;5002344;28;19909;-31
2023/10/26 11:24:32;;;;;;;1.08;1.08;;;12.80;99.90;;;;;;5004199;28;20026;-34
2023/10/26 11:27:15;;;;;;;2.05;1.13;;;12.90;99.90;;;;;;5004875;28;20041;-34
2023/10/26 11:29:43;;;;;;;0.70;0.70;;;13.00;99.90;;;;;;5005085;28;20065;-34
2023/10/26 11:32:26;;;;;;;0.82;0.82;;;13.00;99.90;;;;;;5002748;28;20197;-29
2023/10/26 11:35:06;;;;;;;1.08;0.95;;;13.20;99.90;;;;;;5007395;28;20407;-30
2023/10/26 11:37:36;;;;;;;1.27;0.95;;;13.30;99.90;;;;;;5003990;28;20080;-31
2023/10/26 11:40:03;;;;;;;0.80;0.80;;;13.40;99.90;;;;;;5001905;28;20025;-33
2023/10/26 11:42:52;;;;;;;1.35;1.25;;;13.40;99.90;;;;;;5006332;28;20033;-32
2023/10/26 11:45:23;;;;;;;0.90;0.90;;;13.40;99.90;;;;;;4999683;28;20092;-31
2023/10/26 11:47:53;;;;;;;0.90;0.90;;;13.40;99.90;;;;;;5003435;28;20053;-30
2023/10/26 11:50:20;;;;;;;0.90;0.90;;;13.40;99.90;;;;;;5001604;28;20080;-30
2023/10/26 11:52:46;;;;;;;1.17;1.02;;;13.50;99.90;;;;;;5002077;28;20079;-30
2023/10/26 11:55:15;;;;;;;1.02;1.02;;;13.50;99.90;;;;;;5007483;28;20024;-31
2023/10/26 11:57:42;;;;;;;1.58;1.10;;;13.60;99.90;;;;;;4988203;28;20121;-29
2023/10/26 12:00:12;;;;;;;1.30;1.10;;;13.60;99.90;;;;;;4987690;28;20610;-33
2023/10/26 12:02:41;;;;;;;1.33;1.30;;;13.60;99.90;;;;;;5002372;28;20034;-29
2023/10/26 12:05:15;;;;;;;1.45;1.35;;;13.70;99.90;;;;;;5005731;28;20092;-30
2023/10/26 12:07:42;;;;;;;0.95;0.90;;;13.70;99.90;;;;;;5006622;28;20096;-31
2023/10/26 12:10:08;;;;;;;2.08;1.10;;;13.80;99.90;;;;;;5008974;28;20050;-32
2023/10/26 12:12:34;;;;;;;1.70;1.10;;;14.00;99.90;;;;;;4987059;28;20084;-30
2023/10/26 12:15:00;;;;;;;0.95;0.95;;;14.10;99.90;;;;;;4974921;28;20495;-30
2023/10/26 12:17:33;;;;;;;1.50;1.05;;;14.20;99.90;;;;;;4995414;28;20022;-30
2023/10/26 12:19:59;;;;;;;1.63;1.00;;;14.30;99.90;;;;;;4995566;28;20145;-30
2023/10/26 12:22:25;;;;;;;1.30;1.20;;;14.40;99.90;;;;;;5008093;28;20104;-29
2023/10/26 12:24:54;;;;;;;1.00;1.00;;;14.50;99.90;;;;;;5008713;28;20034;-33
2023/10/26 12:27:20;;;;;;;1.08;1.02;;;14.50;99.90;;;;;;5008042;28;20058;-35
2023/10/26 12:29:47;;;;;;;1.10;1.10;;;14.50;99.90;;;;;;5012828;28;20030;-30
2023/10/26 12:32:13;;;;;;;0.82;0.80;;;14.60;99.90;;;;;;5010691;28;20045;-30
2023/10/26 12:34:39;;;;;;;1.10;1.10;;;14.60;99.90;;;;;;5008630;28;20041;-31
2023/10/26 12:37:05;;;;;;;1.00;1.00;;;14.70;99.90;;;;;;5007746;28;20034;-31
2023/10/26 12:39:31;;;;;;;1.35;1.25;;;14.70;99.90;;;;;;4976571;28;20083;-29
2023/10/26 12:41:57;;;;;;;1.00;0.90;;;14.70;99.90;;;;;;5005007;28;20048;-37
2023/10/26 12:44:24;;;;;;;1.13;1.13;;;14.70;99.90;;;;;;4998199;28;20029;-40
2023/10/26 12:46:54;;;;;;;1.02;0.98;;;14.70;99.90;;;;;;5005536;28;20052;-39
2023/10/26 12:49:21;;;;;;;1.17;1.08;;;14.80;99.90;;;;;;5009408;28;20112;-40
2023/10/26 12:51:47;;;;;;;1.75;0.95;;;14.80;99.90;;;;;;5001584;28;20034;-38
2023/10/26 12:54:13;;;;;;;1.10;1.00;;;14.80;99.90;;;;;;5002617;28;20022;-40